createdAt,value
2022-08-30T00:02:53.842Z,49.88
2022-08-30T00:05:56.353Z,48.59
2022-08-30T00:08:58.154Z,48.96
2022-08-30T00:12:00.438Z,49.08
2022-08-30T00:15:02.299Z,49.14
2022-08-30T00:18:03.937Z,49.98
2022-08-30T00:21:06.100Z,49.81
2022-08-30T00:24:08.138Z,49.43
2022-08-30T00:27:09.589Z,49.75
2022-08-30T00:30:13.505Z,51.07
2022-08-30T00:33:15.378Z,51.68
2022-08-30T00:36:17.158Z,52.46
2022-08-30T00:39:18.565Z,52.55
2022-08-30T00:42:21.368Z,53.21
2022-08-30T00:45:27.853Z,53.23
2022-08-30T00:48:30.423Z,53.43
2022-08-30T00:51:33.323Z,54.52
2022-08-30T00:54:37.388Z,54.04
2022-08-30T00:57:39.989Z,54.97
2022-08-30T01:00:41.490Z,55.00
2022-08-30T01:03:43.885Z,54.51
2022-08-30T01:06:45.966Z,54.36
2022-08-30T01:09:47.590Z,54.51
2022-08-30T01:12:49.314Z,54.75
2022-08-30T01:15:51.531Z,54.83
2022-08-30T01:18:57.473Z,55.08
2022-08-30T01:22:05.492Z,56.02
2022-08-30T01:25:09.055Z,56.45
2022-08-30T01:28:15.797Z,55.64
2022-08-30T01:31:17.771Z,55.43
2022-08-30T01:34:19.459Z,55.62
2022-08-30T01:37:32.661Z,56.12
2022-08-30T01:40:34.126Z,56.32
2022-08-30T01:43:35.598Z,57.27
2022-08-30T01:46:45.577Z,57.34
2022-08-30T01:49:47.939Z,57.28
2022-08-30T01:52:49.470Z,56.90
2022-08-30T01:55:51.097Z,56.71
2022-08-30T01:58:53.235Z,57.56
2022-08-30T02:01:54.896Z,58.17
2022-08-30T02:04:56.936Z,58.98
2022-08-30T02:08:00.437Z,59.13
2022-08-30T02:11:02.521Z,59.41
2022-08-30T02:14:04.653Z,59.00
2022-08-30T02:17:08.606Z,59.00
2022-08-30T02:20:10.780Z,58.85
2022-08-30T02:23:12.246Z,60.38
2022-08-30T02:26:14.559Z,61.07
2022-08-30T02:29:16.012Z,60.24
2022-08-30T02:32:17.456Z,61.27
2022-08-30T02:35:18.969Z,63.11
2022-08-30T02:38:20.396Z,64.17
2022-08-30T02:41:23.508Z,63.95
2022-08-30T02:44:24.937Z,63.72
2022-08-30T02:47:26.528Z,61.69
2022-08-30T02:50:28.183Z,62.87
2022-08-30T02:53:29.742Z,63.46
2022-08-30T02:56:31.189Z,63.72
2022-08-30T02:59:33.480Z,63.62
2022-08-30T03:02:35.076Z,62.90
2022-08-30T03:05:39.784Z,62.09
2022-08-30T03:08:41.675Z,62.89
2022-08-30T03:11:44.765Z,61.92
2022-08-30T03:14:46.274Z,62.97
2022-08-30T03:17:47.705Z,63.38
2022-08-30T03:20:54.542Z,63.08
2022-08-30T03:23:56.376Z,63.15
2022-08-30T03:26:57.797Z,63.82
2022-08-30T03:29:59.285Z,63.42
2022-08-30T03:33:01.626Z,64.20
2022-08-30T03:36:04.013Z,64.04
2022-08-30T03:39:06.556Z,64.70
2022-08-30T03:42:11.229Z,64.75
2022-08-30T03:45:14.619Z,65.62
2022-08-30T03:48:16.089Z,65.41
2022-08-30T03:51:18.294Z,65.11
2022-08-30T03:54:19.719Z,64.12
2022-08-30T03:57:24.386Z,64.80
2022-08-30T04:00:26.201Z,64.70
2022-08-30T04:03:27.676Z,64.48
2022-08-30T04:06:29.170Z,65.08
2022-08-30T04:09:31.326Z,65.22
2022-08-30T04:12:32.826Z,63.09
2022-08-30T04:15:34.274Z,64.90
2022-08-30T04:18:36.200Z,65.24
2022-08-30T04:21:42.900Z,65.69
2022-08-30T04:24:44.863Z,66.12
2022-08-30T04:27:46.366Z,66.85
2022-08-30T04:30:47.906Z,66.88
2022-08-30T04:33:49.638Z,67.05
2022-08-30T04:36:51.241Z,67.50
2022-08-30T04:39:57.484Z,68.70
2022-08-30T04:42:59.261Z,68.22
2022-08-30T04:46:07.030Z,69.24
2022-08-30T04:49:08.545Z,69.63
2022-08-30T04:52:10.916Z,70.65
2022-08-30T04:55:16.800Z,70.47
2022-08-30T04:58:21.400Z,70.25
2022-08-30T05:01:26.688Z,68.82
2022-08-30T05:04:28.864Z,68.61
2022-08-30T05:07:31.632Z,69.40
2022-08-30T05:10:34.233Z,69.06
2022-08-30T05:13:37.076Z,69.85
2022-08-30T05:16:39.285Z,70.16
2022-08-30T05:19:40.832Z,69.53
2022-08-30T05:22:52.281Z,69.57
2022-08-30T05:25:55.510Z,70.15
2022-08-30T05:28:57.653Z,71.31
2022-08-30T05:31:59.448Z,70.81
2022-08-30T05:35:00.950Z,70.35
2022-08-30T05:38:02.362Z,71.11
2022-08-30T05:41:08.396Z,69.50
2022-08-30T05:44:12.455Z,68.26
2022-08-30T05:47:13.875Z,66.73
2022-08-30T05:50:15.539Z,66.54
2022-08-30T05:53:16.945Z,65.27
2022-08-30T05:56:21.752Z,64.36
2022-08-30T05:59:26.631Z,64.52
2022-08-30T06:02:28.285Z,65.27
2022-08-30T06:05:29.845Z,63.78
2022-08-30T06:08:34.998Z,63.78
2022-08-30T06:11:37.510Z,63.46
2022-08-30T06:14:39.411Z,63.02
2022-08-30T06:17:40.816Z,63.11
2022-08-30T06:20:43.702Z,63.44
2022-08-30T06:23:45.143Z,62.51
2022-08-30T06:26:47.258Z,61.45
2022-08-30T06:29:51.894Z,60.62
2022-08-30T06:32:53.335Z,60.91
2022-08-30T06:35:58.562Z,60.56
2022-08-30T06:39:01.346Z,60.22
2022-08-30T06:42:02.817Z,59.05
2022-08-30T06:45:10.320Z,59.47
2022-08-30T06:48:12.752Z,58.80
2022-08-30T06:51:14.621Z,58.34
2022-08-30T06:54:16.918Z,58.05
2022-08-30T06:57:18.394Z,57.11
2022-08-30T07:00:19.883Z,57.63
2022-08-30T07:03:21.907Z,56.91
2022-08-30T07:06:25.104Z,57.53
2022-08-30T07:09:26.560Z,57.35
2022-08-30T07:12:27.964Z,56.89
2022-08-30T07:15:29.378Z,56.04
2022-08-30T07:18:50.592Z,55.14
2022-08-30T07:21:52.037Z,53.93
2022-08-30T07:24:53.447Z,53.47
2022-08-30T07:27:55.901Z,53.01
2022-08-30T07:30:57.443Z,52.55
2022-08-30T07:33:58.894Z,52.35
2022-08-30T07:37:00.316Z,52.30
2022-08-30T07:40:02.944Z,51.33
2022-08-30T07:43:04.431Z,51.13
2022-08-30T07:46:07.834Z,51.39
2022-08-30T07:49:11.311Z,49.87
2022-08-30T07:52:12.980Z,50.46
2022-08-30T07:55:14.560Z,51.54
2022-08-30T07:58:16.231Z,51.85
2022-08-30T08:01:19.273Z,51.85
2022-08-30T08:04:21.601Z,51.88
2022-08-30T08:07:23.076Z,52.13
2022-08-30T08:10:24.500Z,51.63
2022-08-30T08:13:28.026Z,51.62
2022-08-30T08:16:36.035Z,51.65
2022-08-30T08:19:37.438Z,51.70
2022-08-30T08:22:40.146Z,50.99
2022-08-30T08:25:42.127Z,51.57
2022-08-30T08:28:46.336Z,50.62
2022-08-30T08:31:47.976Z,50.04
2022-08-30T08:34:49.421Z,50.86
2022-08-30T08:37:50.866Z,51.03
2022-08-30T08:40:52.206Z,50.19
2022-08-30T08:43:53.790Z,49.72
2022-08-30T08:47:06.144Z,50.34
2022-08-30T08:50:17.433Z,50.12
2022-08-30T08:53:46.085Z,49.99
2022-08-30T08:56:48.575Z,49.67
2022-08-30T08:59:54.109Z,50.05
2022-08-30T09:03:01.521Z,48.02
2022-08-30T09:06:15.648Z,48.61
2022-08-30T09:09:28.676Z,48.40
2022-08-30T09:12:30.163Z,48.50
2022-08-30T09:15:34.323Z,48.59
2022-08-30T09:18:50.093Z,48.28
2022-08-30T09:22:04.068Z,47.36
2022-08-30T09:25:22.164Z,47.60
2022-08-30T09:28:44.565Z,47.77
2022-08-30T09:32:10.061Z,46.66
2022-08-30T09:35:20.725Z,46.33
2022-08-30T09:38:35.862Z,46.27
2022-08-30T09:41:41.171Z,46.35
2022-08-30T09:44:42.586Z,45.40
2022-08-30T09:47:44.420Z,44.63
2022-08-30T09:50:47.690Z,43.64
2022-08-30T09:54:17.470Z,42.49
2022-08-30T09:57:36.881Z,43.30
2022-08-30T10:00:47.533Z,42.41
2022-08-30T10:04:05.623Z,42.88
2022-08-30T10:07:18.241Z,43.78
2022-08-30T10:10:33.877Z,43.01
2022-08-30T10:14:00.125Z,41.76
2022-08-30T10:17:11.043Z,40.34
2022-08-30T10:20:53.005Z,40.92
2022-08-30T10:24:03.878Z,39.67
2022-08-30T10:27:39.371Z,39.52
2022-08-30T10:30:47.508Z,38.99
2022-08-30T10:33:55.795Z,38.71
2022-08-30T10:37:08.371Z,39.00
2022-08-30T10:40:37.149Z,38.83
2022-08-30T10:44:00.622Z,38.09
2022-08-30T10:47:02.612Z,37.20
2022-08-30T10:50:16.347Z,36.98
2022-08-30T10:53:37.077Z,36.33
2022-08-30T10:56:43.093Z,37.05
2022-08-30T11:00:11.959Z,36.68
2022-08-30T11:03:28.956Z,36.90
2022-08-30T11:06:42.786Z,36.46
2022-08-30T11:10:14.841Z,36.40
2022-08-30T11:13:30.321Z,35.88
2022-08-30T11:16:38.629Z,36.45
2022-08-30T11:19:41.282Z,34.92
2022-08-30T11:23:20.527Z,36.32
2022-08-30T11:26:46.884Z,36.42
2022-08-30T11:29:48.577Z,37.14
2022-08-30T11:33:24.945Z,36.60
2022-08-30T11:39:55.063Z,37.05
2022-08-30T11:42:56.722Z,37.25
2022-08-30T11:46:20.017Z,36.91
2022-08-30T11:49:23.427Z,37.03
2022-08-30T11:52:48.919Z,36.24
2022-08-30T11:56:21.106Z,35.78
2022-08-30T11:59:43.085Z,35.98
2022-08-30T12:03:03.667Z,36.27
2022-08-30T12:06:07.580Z,35.84
2022-08-30T12:09:11.938Z,34.92
2022-08-30T12:12:25.262Z,34.72
2022-08-30T12:16:03.035Z,35.56
2022-08-30T12:19:19.874Z,35.14
2022-08-30T12:22:22.864Z,34.85
2022-08-30T12:25:33.274Z,34.77
2022-08-30T12:28:34.709Z,35.14
2022-08-30T12:31:59.194Z,34.53
2022-08-30T12:35:03.888Z,34.62
2022-08-30T12:38:12.054Z,34.09
2022-08-30T12:41:20.972Z,35.18
2022-08-30T12:44:28.093Z,35.13
2022-08-30T12:47:37.246Z,34.61
2022-08-30T12:50:54.530Z,33.44
2022-08-30T12:54:05.268Z,34.08
2022-08-30T12:57:25.613Z,33.71
2022-08-30T13:00:41.148Z,34.33
2022-08-30T13:03:42.685Z,34.18
2022-08-30T13:06:52.639Z,33.53
2022-08-30T13:10:14.354Z,33.04
2022-08-30T13:13:29.128Z,32.91
2022-08-30T13:16:40.341Z,32.89
2022-08-30T13:19:57.690Z,33.97
2022-08-30T13:23:07.679Z,33.76
2022-08-30T13:26:11.493Z,33.40
2022-08-30T13:29:18.858Z,33.61
2022-08-30T13:32:20.754Z,33.95
2022-08-30T13:35:22.537Z,33.17
2022-08-30T13:38:24.049Z,33.08
2022-08-30T13:41:26.156Z,32.77
2022-08-30T13:44:31.746Z,33.28
2022-08-30T13:47:34.775Z,32.22
2022-08-30T13:50:36.744Z,32.79
2022-08-30T13:53:54.629Z,32.84
2022-08-30T13:56:56.748Z,32.00
2022-08-30T13:59:58.826Z,32.60
2022-08-30T14:03:01.570Z,32.95
2022-08-30T14:06:31.579Z,32.93
2022-08-30T14:09:26.898Z,32.55
2022-08-30T14:16:26.850Z,32.18
2022-08-30T14:19:15.390Z,31.63
2022-08-30T14:22:19.793Z,31.47
2022-08-30T14:25:21.440Z,31.78
2022-08-30T14:28:22.874Z,31.63
2022-08-30T14:31:25.744Z,31.80
2022-08-30T14:34:27.572Z,31.58
2022-08-30T14:37:29.028Z,32.75
2022-08-30T14:40:31.737Z,31.91
2022-08-30T14:43:33.476Z,31.72
2022-08-30T14:46:34.939Z,31.89
2022-08-30T14:49:36.848Z,31.88
2022-08-30T14:52:38.481Z,32.08
2022-08-30T14:55:41.075Z,31.70
2022-08-30T14:58:43.100Z,31.82
2022-08-30T15:01:44.610Z,30.82
2022-08-30T15:04:47.071Z,31.43
2022-08-30T15:07:52.804Z,30.99
2022-08-30T15:10:54.298Z,31.77
2022-08-30T15:13:55.726Z,31.70
2022-08-30T15:16:58.805Z,30.94
2022-08-30T15:20:00.222Z,30.35
2022-08-30T15:23:02.154Z,30.87
2022-08-30T15:26:04.186Z,30.30
2022-08-30T15:29:05.836Z,30.66
2022-08-30T15:32:07.920Z,30.37
2022-08-30T15:35:09.544Z,30.55
2022-08-30T15:38:12.490Z,31.33
2022-08-30T15:41:14.821Z,30.97
2022-08-30T15:44:16.300Z,30.89
2022-08-30T15:47:22.266Z,30.39
2022-08-30T15:50:23.852Z,30.68
2022-08-30T15:53:25.252Z,32.26
2022-08-30T15:56:26.690Z,31.68
2022-08-30T15:59:30.410Z,31.80
2022-08-30T16:02:31.977Z,31.19
2022-08-30T16:05:33.437Z,31.54
2022-08-30T16:08:34.840Z,31.53
2022-08-30T16:11:37.548Z,31.02
2022-08-30T16:14:38.964Z,30.58
2022-08-30T16:17:40.867Z,30.60
2022-08-30T16:20:43.393Z,30.58
2022-08-30T16:23:45.255Z,30.70
2022-08-30T16:26:49.882Z,30.51
2022-08-30T16:29:51.328Z,30.79
2022-08-30T16:32:52.796Z,30.68
2022-08-30T16:35:56.969Z,31.74
2022-08-30T16:38:58.903Z,31.65
2022-08-30T16:42:03.140Z,31.53
2022-08-30T16:45:10.247Z,31.43
2022-08-30T16:48:13.413Z,31.68
2022-08-30T16:51:18.111Z,32.34
2022-08-30T16:54:19.763Z,31.83
2022-08-30T16:57:21.367Z,32.15
2022-08-30T17:00:23.974Z,32.30
2022-08-30T17:03:25.714Z,32.99
2022-08-30T17:06:27.605Z,32.91
2022-08-30T17:09:29.173Z,32.62
2022-08-30T17:12:30.933Z,32.68
2022-08-30T17:15:32.561Z,32.86
2022-08-30T17:18:35.640Z,33.41
2022-08-30T17:21:38.851Z,33.34
2022-08-30T17:24:41.032Z,33.20
2022-08-30T17:27:42.469Z,33.76
2022-08-30T17:30:43.939Z,33.57
2022-08-30T17:33:46.781Z,34.03
2022-08-30T17:36:49.622Z,33.76
2022-08-30T17:39:51.368Z,33.92
2022-08-30T17:42:52.909Z,34.26
2022-08-30T17:45:54.321Z,34.67
2022-08-30T17:48:57.568Z,34.31
2022-08-30T17:52:03.939Z,34.41
2022-08-30T17:55:07.538Z,34.48
2022-08-30T17:58:09.022Z,34.88
2022-08-30T18:01:14.647Z,34.94
2022-08-30T18:04:19.686Z,35.33
2022-08-30T18:07:21.928Z,35.77
2022-08-30T18:10:28.440Z,35.91
2022-08-30T18:13:35.919Z,36.02
2022-08-30T18:16:39.148Z,35.97
2022-08-30T18:19:51.264Z,36.46
2022-08-30T18:22:52.715Z,36.32
2022-08-30T18:26:00.367Z,36.54
2022-08-30T18:29:03.986Z,36.75
2022-08-30T18:32:05.582Z,36.90
2022-08-30T18:35:10.490Z,36.75
2022-08-30T18:38:12.576Z,37.22
2022-08-30T18:41:16.253Z,37.22
2022-08-30T18:44:27.683Z,37.67
2022-08-30T18:47:30.112Z,37.78
2022-08-30T18:50:32.844Z,37.92
2022-08-30T18:53:35.310Z,38.13
2022-08-30T18:56:38.944Z,38.66
2022-08-30T18:59:41.801Z,38.01
2022-08-30T19:03:02.262Z,38.10
2022-08-30T19:06:06.068Z,37.90
2022-08-30T19:09:09.446Z,38.09
2022-08-30T19:12:11.400Z,38.33
2022-08-30T19:15:14.169Z,38.05
2022-08-30T19:21:37.316Z,38.69
2022-08-30T19:24:38.795Z,39.21
2022-08-30T19:27:40.543Z,40.00
2022-08-30T19:30:41.982Z,42.23
2022-08-30T19:33:45.071Z,43.28
2022-08-30T19:36:46.666Z,44.11
2022-08-30T19:39:48.581Z,44.96
2022-08-30T19:42:51.369Z,45.49
2022-08-30T19:45:55.320Z,45.63
2022-08-30T19:48:57.318Z,45.62
2022-08-30T19:51:58.872Z,44.51
2022-08-30T19:55:02.649Z,45.26
2022-08-30T19:58:04.586Z,45.44
2022-08-30T20:01:13.050Z,46.00
2022-08-30T20:04:22.024Z,47.07
2022-08-30T20:07:26.213Z,47.37
2022-08-30T20:10:29.593Z,47.11
2022-08-30T20:13:33.902Z,46.77
2022-08-30T20:16:37.544Z,47.17
2022-08-30T20:19:39.726Z,47.15
2022-08-30T20:22:41.160Z,47.17
2022-08-30T20:24:32.483Z,38.65
2022-08-30T20:25:54.380Z,47.82
2022-08-30T20:28:55.882Z,48.25
2022-08-30T20:31:57.315Z,47.51
2022-08-30T20:34:59.057Z,44.40
2022-08-30T20:38:06.174Z,42.45
2022-08-30T20:41:11.008Z,42.24
2022-08-30T20:44:12.462Z,41.89
2022-08-30T20:47:17.359Z,41.30
2022-08-30T20:50:19.118Z,41.03
2022-08-30T20:53:20.554Z,40.44
2022-08-30T20:56:22.878Z,40.53
2022-08-30T20:59:24.322Z,40.21
2022-08-30T21:02:26.060Z,40.07
2022-08-30T21:05:27.528Z,39.89
2022-08-30T21:08:29.013Z,39.24
2022-08-30T21:11:30.576Z,39.68
2022-08-30T21:14:32.127Z,39.72
2022-08-30T21:17:33.549Z,39.78
2022-08-30T21:20:35.634Z,39.90
2022-08-30T21:23:37.296Z,39.84
2022-08-30T21:26:40.701Z,40.09
2022-08-30T21:29:42.304Z,39.70
2022-08-30T21:32:43.840Z,39.99
2022-08-30T21:36:03.772Z,39.89
2022-08-30T21:39:06.501Z,40.21
2022-08-30T21:42:08.945Z,39.86
2022-08-30T21:45:10.617Z,40.17
2022-08-30T21:48:13.538Z,39.94
2022-08-30T21:51:15.113Z,39.77
2022-08-30T21:54:18.028Z,40.11
2022-08-30T21:57:19.488Z,40.46
2022-08-30T22:00:21.136Z,40.73
2022-08-30T22:03:22.599Z,40.68
2022-08-30T22:06:25.233Z,40.74
2022-08-30T22:09:32.224Z,40.97
2022-08-30T22:12:34.440Z,41.46
2022-08-30T22:15:35.859Z,41.12
2022-08-30T22:18:39.741Z,41.35
2022-08-30T22:21:42.360Z,41.45
2022-08-30T22:24:43.782Z,41.39
2022-08-30T22:27:45.874Z,41.53
2022-08-30T22:30:48.451Z,41.70
2022-08-30T22:33:51.584Z,41.67
2022-08-30T22:36:53.148Z,41.94
2022-08-30T22:39:54.634Z,41.83
2022-08-30T22:42:56.054Z,42.40
2022-08-30T22:45:58.062Z,42.05
2022-08-30T22:48:59.643Z,41.91
2022-08-30T22:52:01.089Z,42.51
2022-08-30T22:55:04.134Z,42.72
2022-08-30T22:58:05.556Z,43.05
2022-08-30T23:01:07.348Z,42.59
2022-08-30T23:04:09.539Z,43.01
2022-08-30T23:07:10.973Z,43.01
2022-08-30T23:10:13.790Z,43.23
2022-08-30T23:13:15.290Z,43.44
2022-08-30T23:16:17.342Z,43.43
2022-08-30T23:19:18.806Z,43.58
2022-08-30T23:22:20.204Z,44.11
2022-08-30T23:25:41.402Z,43.59
2022-08-30T23:29:01.804Z,44.07
2022-08-30T23:32:22.549Z,44.05
2022-08-30T23:35:42.305Z,44.40
2022-08-30T23:39:02.137Z,44.36
2022-08-30T23:42:24.274Z,44.77
2022-08-30T23:45:44.136Z,44.56
2022-08-30T23:49:04.362Z,44.78
2022-08-30T23:52:24.094Z,44.99
2022-08-30T23:55:43.857Z,44.89
2022-08-30T23:59:03.810Z,44.84
